createdAt,value
2019-04-27T00:00:46.467Z,170.17
2019-04-27T00:02:05.709Z,172.70
2019-04-27T00:03:13.983Z,164.57
2019-04-27T00:04:43.549Z,149.73
2019-04-27T00:06:10.138Z,147.13
2019-04-27T00:07:33.700Z,150.13
2019-04-27T00:08:50.383Z,131.63
2019-04-27T00:09:58.640Z,159.33
2019-04-27T00:11:10.400Z,137.43
2019-04-27T00:12:16.498Z,146.43
2019-04-27T00:13:22.859Z,133.87
2019-04-27T00:14:27.319Z,154.13
2019-04-27T00:15:45.308Z,141.73
2019-04-27T00:16:58.098Z,134.83
2019-04-27T00:18:16.929Z,155.17
2019-04-27T00:19:38.846Z,137.00
2019-04-27T00:20:56.047Z,153.23
2019-04-27T00:22:14.666Z,192.43
2019-04-27T00:23:23.618Z,173.73
2019-04-27T00:24:28.124Z,134.07
2019-04-27T00:25:32.855Z,153.73
2019-04-27T00:26:37.350Z,176.00
2019-04-27T00:27:43.526Z,143.73
2019-04-27T00:28:48.711Z,139.13
2019-04-27T00:29:53.520Z,155.10
2019-04-27T00:30:58.177Z,153.73
2019-04-27T00:32:04.316Z,150.97
2019-04-27T00:33:08.828Z,153.70
2019-04-27T00:34:15.040Z,146.10
2019-04-27T00:35:26.272Z,162.17
2019-04-27T00:36:36.905Z,151.50
2019-04-27T00:37:58.299Z,170.70
2019-04-27T00:39:08.099Z,173.47
2019-04-27T00:40:23.556Z,159.43
2019-04-27T00:41:28.154Z,166.17
2019-04-27T00:42:33.325Z,166.57
2019-04-27T00:43:38.691Z,159.33
2019-04-27T00:44:43.101Z,170.77
2019-04-27T00:45:47.570Z,179.87
2019-04-27T00:46:53.387Z,154.73
2019-04-27T00:47:59.845Z,161.93
2019-04-27T00:49:04.013Z,160.27
2019-04-27T00:50:08.877Z,166.83
2019-04-27T00:51:14.497Z,176.37
2019-04-27T00:52:19.114Z,170.37
2019-04-27T00:53:23.585Z,170.87
2019-04-27T00:54:28.189Z,162.67
2019-04-27T00:55:34.335Z,184.07
2019-04-27T00:56:57.839Z,199.17
2019-04-27T00:58:23.001Z,179.40
2019-04-27T00:59:45.642Z,190.07
2019-04-27T01:00:55.897Z,186.73
2019-04-27T01:02:19.399Z,196.40
2019-04-27T01:03:30.039Z,189.07
2019-04-27T01:04:34.456Z,215.40
2019-04-27T01:05:38.947Z,213.17
2019-04-27T01:06:43.803Z,203.40
2019-04-27T01:07:48.333Z,198.27
2019-04-27T01:08:53.145Z,228.00
2019-04-27T01:09:57.720Z,234.60
2019-04-27T01:11:02.918Z,236.70
2019-04-27T01:12:08.615Z,233.13
2019-04-27T01:13:23.035Z,239.83
2019-04-27T01:14:27.569Z,261.23
2019-04-27T01:15:33.987Z,273.30
2019-04-27T01:16:39.192Z,272.83
2019-04-27T01:17:43.744Z,255.07
2019-04-27T01:18:48.905Z,292.77
2019-04-27T01:19:53.548Z,276.40
2019-04-27T01:20:59.074Z,289.30
2019-04-27T01:22:03.872Z,319.90
2019-04-27T01:23:08.887Z,263.50
2019-04-27T01:24:14.685Z,297.83
2019-04-27T01:25:20.204Z,282.50
2019-04-27T01:26:59.914Z,310.30
2019-04-27T01:28:39.006Z,283.47
2019-04-27T01:29:43.551Z,304.33
2019-04-27T01:30:54.326Z,335.87
2019-04-27T01:31:58.950Z,327.47
2019-04-27T01:33:03.563Z,312.40
2019-04-27T01:34:09.238Z,328.77
2019-04-27T01:35:13.903Z,356.50
2019-04-27T01:36:19.051Z,305.20
2019-04-27T01:37:23.637Z,342.13
2019-04-27T01:38:29.100Z,363.47
2019-04-27T01:39:33.776Z,364.53
2019-04-27T01:40:38.675Z,362.83
2019-04-27T01:41:43.290Z,374.97
2019-04-27T01:42:48.410Z,346.17
2019-04-27T01:43:52.908Z,366.43
2019-04-27T01:44:59.419Z,378.37
2019-04-27T01:46:03.771Z,362.50
2019-04-27T01:47:09.992Z,345.37
2019-04-27T01:48:23.023Z,400.37
2019-04-27T01:49:20.846Z,367.43
2019-04-27T01:50:25.550Z,372.50
2019-04-27T01:51:30.182Z,370.13
2019-04-27T01:52:35.035Z,372.53
2019-04-27T01:53:39.508Z,405.03
2019-04-27T01:54:44.039Z,376.80
2019-04-27T01:55:49.155Z,385.27
2019-04-27T01:56:53.917Z,349.57
2019-04-27T01:57:58.599Z,387.27
2019-04-27T01:59:03.153Z,390.67
2019-04-27T02:00:29.465Z,368.40
2019-04-27T02:01:58.799Z,358.43
2019-04-27T02:03:04.228Z,371.83
2019-04-27T02:04:26.498Z,372.93
2019-04-27T02:05:39.152Z,361.43
2019-04-27T02:06:44.831Z,351.97
2019-04-27T02:07:49.274Z,370.90
2019-04-27T02:08:53.708Z,385.13
2019-04-27T02:09:59.076Z,360.27
2019-04-27T02:11:03.589Z,389.80
2019-04-27T02:12:09.345Z,364.67
2019-04-27T02:13:14.167Z,340.20
2019-04-27T02:14:19.602Z,340.73
2019-04-27T02:15:24.320Z,370.80
2019-04-27T02:16:30.557Z,347.67
2019-04-27T02:17:34.813Z,352.23
2019-04-27T02:18:40.049Z,379.03
2019-04-27T02:19:44.767Z,413.17
2019-04-27T02:20:49.358Z,356.33
2019-04-27T02:21:55.175Z,335.63
2019-04-27T02:22:59.696Z,330.57
2019-04-27T02:24:04.618Z,281.03
2019-04-27T02:25:09.719Z,341.40
2019-04-27T02:26:14.265Z,333.33
2019-04-27T02:27:20.725Z,315.37
2019-04-27T02:28:47.244Z,361.17
2019-04-27T02:30:30.593Z,384.80
2019-04-27T02:31:52.965Z,340.10
2019-04-27T02:33:31.350Z,329.43
2019-04-27T02:34:45.821Z,333.33
2019-04-27T02:35:50.689Z,341.03
2019-04-27T02:36:55.354Z,348.63
2019-04-27T02:38:00.515Z,362.33
2019-04-27T02:39:06.561Z,345.13
2019-04-27T02:40:51.050Z,380.30
2019-04-27T02:41:55.555Z,369.20
2019-04-27T02:43:00.081Z,338.87
2019-04-27T02:44:15.686Z,332.30
2019-04-27T02:45:22.202Z,333.17
2019-04-27T02:46:26.262Z,377.60
2019-04-27T02:47:30.775Z,320.07
2019-04-27T02:48:51.857Z,365.60
2019-04-27T02:49:41.224Z,349.50
2019-04-27T02:50:49.781Z,354.17
2019-04-27T02:52:00.496Z,338.53
2019-04-27T02:53:05.067Z,340.37
2019-04-27T02:54:12.610Z,338.40
2019-04-27T02:55:15.743Z,333.30
2019-04-27T02:56:20.390Z,318.83
2019-04-27T02:57:24.903Z,339.53
2019-04-27T02:58:31.592Z,328.00
2019-04-27T02:59:35.304Z,342.83
2019-04-27T03:00:40.224Z,323.73
2019-04-27T03:01:56.814Z,331.73
2019-04-27T03:03:04.753Z,360.97
2019-04-27T03:04:09.998Z,382.47
2019-04-27T03:05:24.744Z,369.63
2019-04-27T03:06:29.950Z,360.03
2019-04-27T03:07:34.737Z,413.63
2019-04-27T03:08:42.212Z,371.40
2019-04-27T03:09:45.477Z,382.90
2019-04-27T03:10:50.487Z,370.73
2019-04-27T03:11:55.468Z,400.60
2019-04-27T03:13:08.168Z,373.20
2019-04-27T03:14:40.412Z,376.90
2019-04-27T03:16:00.447Z,365.53
2019-04-27T03:17:39.646Z,376.43
2019-04-27T03:19:18.221Z,333.23
2019-04-27T03:20:34.780Z,335.17
2019-04-27T03:21:59.085Z,371.70
2019-04-27T03:23:05.573Z,318.47
2019-04-27T03:24:10.128Z,326.67
2019-04-27T03:25:34.324Z,315.23
2019-04-27T03:26:50.082Z,336.97
2019-04-27T03:27:54.921Z,365.43
2019-04-27T03:29:00.044Z,390.23
2019-04-27T03:30:05.483Z,298.87
2019-04-27T03:31:13.434Z,324.27
2019-04-27T03:32:16.241Z,336.27
2019-04-27T03:33:22.451Z,330.67
2019-04-27T03:34:32.141Z,333.30
2019-04-27T03:35:36.934Z,315.60
2019-04-27T03:36:41.935Z,353.07
2019-04-27T03:37:46.597Z,303.37
2019-04-27T03:38:51.013Z,314.63
2019-04-27T03:39:55.537Z,324.43
2019-04-27T03:41:00.602Z,327.10
2019-04-27T03:42:06.107Z,287.47
2019-04-27T03:43:16.293Z,272.63
2019-04-27T03:44:20.928Z,272.60
2019-04-27T03:45:25.435Z,296.97
2019-04-27T03:46:30.333Z,240.80
2019-04-27T03:47:53.772Z,244.17
2019-04-27T03:49:00.037Z,259.40
2019-04-27T03:50:05.175Z,258.47
2019-04-27T03:51:22.328Z,267.07
2019-04-27T03:52:35.973Z,241.57
2019-04-27T03:53:57.129Z,227.27
2019-04-27T03:55:06.313Z,253.77
2019-04-27T03:56:20.458Z,257.27
2019-04-27T03:57:34.133Z,241.47
2019-04-27T03:58:42.655Z,266.80
2019-04-27T04:00:01.287Z,264.70
2019-04-27T04:01:06.133Z,234.37
2019-04-27T04:02:10.608Z,252.60
2019-04-27T04:03:15.316Z,282.03
2019-04-27T04:04:20.392Z,257.93
2019-04-27T04:05:24.808Z,266.90
2019-04-27T04:06:29.746Z,285.33
2019-04-27T04:07:34.298Z,296.50
2019-04-27T04:08:39.684Z,273.40
2019-04-27T04:09:44.837Z,304.63
2019-04-27T04:10:54.276Z,281.70
2019-04-27T04:12:04.121Z,291.57
2019-04-27T04:13:15.870Z,301.63
2019-04-27T04:14:21.510Z,345.67
2019-04-27T04:15:36.092Z,339.50
2019-04-27T04:16:45.748Z,329.27
2019-04-27T04:17:50.272Z,349.47
2019-04-27T04:19:00.897Z,340.27
2019-04-27T04:20:06.246Z,374.07
2019-04-27T04:21:10.767Z,310.50
2019-04-27T04:22:15.318Z,404.03
2019-04-27T04:23:20.410Z,350.83
2019-04-27T04:24:28.386Z,361.97
2019-04-27T04:25:33.058Z,346.23
2019-04-27T04:26:40.442Z,379.73
2019-04-27T04:27:45.257Z,333.47
2019-04-27T04:28:50.104Z,351.20
2019-04-27T04:29:54.548Z,341.87
2019-04-27T04:31:00.530Z,333.27
2019-04-27T04:32:05.332Z,329.17
2019-04-27T04:33:10.317Z,316.40
2019-04-27T04:34:14.921Z,331.50
2019-04-27T04:35:21.694Z,356.60
2019-04-27T04:36:26.267Z,309.73
2019-04-27T04:37:30.614Z,287.63
2019-04-27T04:38:35.144Z,283.50
2019-04-27T04:39:40.514Z,300.50
2019-04-27T04:40:55.669Z,308.77
2019-04-27T04:42:14.744Z,328.33
2019-04-27T04:43:29.933Z,309.60
2019-04-27T04:44:52.373Z,264.83
2019-04-27T04:46:15.116Z,332.57
2019-04-27T04:47:30.616Z,307.90
2019-04-27T04:48:40.128Z,315.23
2019-04-27T04:49:43.664Z,305.83
2019-04-27T04:50:50.046Z,313.83
2019-04-27T04:51:54.193Z,310.07
2019-04-27T04:52:59.964Z,358.17
2019-04-27T04:54:04.921Z,290.70
2019-04-27T04:55:10.212Z,265.20
2019-04-27T04:56:14.865Z,305.80
2019-04-27T04:57:21.818Z,289.87
2019-04-27T04:58:25.609Z,273.33
2019-04-27T04:59:30.117Z,266.03
2019-04-27T05:00:34.479Z,288.30
2019-04-27T05:01:41.207Z,260.47
2019-04-27T05:02:49.229Z,272.67
2019-04-27T05:04:00.574Z,240.00
2019-04-27T05:05:19.706Z,206.83
2019-04-27T05:06:25.599Z,233.60
2019-04-27T05:07:30.255Z,238.90
2019-04-27T05:08:34.751Z,248.20
2019-04-27T05:09:39.627Z,259.67
2019-04-27T05:10:44.200Z,230.03
2019-04-27T05:11:48.840Z,257.30
2019-04-27T05:12:53.614Z,210.90
2019-04-27T05:14:01.241Z,172.80
2019-04-27T05:15:04.892Z,187.70
2019-04-27T05:16:09.427Z,180.20
2019-04-27T05:17:14.312Z,173.93
2019-04-27T05:18:21.927Z,173.43
2019-04-27T05:19:28.686Z,173.73
2019-04-27T05:20:44.971Z,165.90
2019-04-27T05:21:49.495Z,134.83
2019-04-27T05:22:54.194Z,590.80
2019-04-27T05:24:00.584Z,237.43
2019-04-27T05:25:05.200Z,162.03
2019-04-27T05:26:09.863Z,131.53
2019-04-27T05:27:14.656Z,127.60
2019-04-27T05:28:22.056Z,127.03
2019-04-27T05:29:26.582Z,115.63
2019-04-27T05:30:31.273Z,106.93
2019-04-27T05:31:35.730Z,102.10
2019-04-27T05:32:40.252Z,105.53
2019-04-27T05:33:44.802Z,108.50
2019-04-27T05:34:49.589Z,106.90
2019-04-27T05:35:54.550Z,111.37
2019-04-27T05:37:01.084Z,103.30
2019-04-27T05:38:07.249Z,105.47
2019-04-27T05:39:13.314Z,96.93
2019-04-27T05:40:18.940Z,92.67
2019-04-27T05:41:23.719Z,106.80
2019-04-27T05:42:28.697Z,101.70
2019-04-27T05:43:39.912Z,96.57
2019-04-27T05:45:29.137Z,93.40
2019-04-27T05:46:44.371Z,95.83
2019-04-27T05:47:53.742Z,94.37
2019-04-27T05:49:01.662Z,98.10
2019-04-27T05:50:18.375Z,95.63
2019-04-27T05:51:20.388Z,98.90
2019-04-27T05:52:29.383Z,88.83
2019-04-27T05:53:34.628Z,84.30
2019-04-27T05:54:39.077Z,93.03
2019-04-27T05:55:43.498Z,90.00
2019-04-27T05:56:49.249Z,91.07
2019-04-27T05:57:54.101Z,91.20
2019-04-27T05:59:00.337Z,95.63
2019-04-27T06:00:06.539Z,89.70
2019-04-27T06:01:12.792Z,83.40
2019-04-27T06:02:20.758Z,84.77
2019-04-27T06:03:23.836Z,93.20
2019-04-27T06:04:29.133Z,85.33
2019-04-27T06:05:34.079Z,90.50
2019-04-27T06:06:39.829Z,88.53
2019-04-27T06:07:44.601Z,78.27
2019-04-27T06:08:49.551Z,81.30
2019-04-27T06:09:54.466Z,87.63
2019-04-27T06:10:59.342Z,91.10
2019-04-27T06:12:04.036Z,80.90
2019-04-27T06:13:10.651Z,79.07
2019-04-27T06:14:14.903Z,78.50
2019-04-27T06:15:19.922Z,84.70
2019-04-27T06:16:24.634Z,81.40
2019-04-27T06:17:30.152Z,81.57
2019-04-27T06:18:34.730Z,75.73
2019-04-27T06:19:39.405Z,79.60
2019-04-27T06:20:54.797Z,76.17
2019-04-27T06:21:50.258Z,75.53
2019-04-27T06:22:54.941Z,77.57
2019-04-27T06:23:59.393Z,71.20
2019-04-27T06:25:04.317Z,73.27
2019-04-27T06:26:11.701Z,80.00
2019-04-27T06:27:15.264Z,71.10
2019-04-27T06:28:19.928Z,65.80
2019-04-27T06:29:25.483Z,67.50
2019-04-27T06:30:30.108Z,67.83
2019-04-27T06:31:34.910Z,69.13
2019-04-27T06:32:39.699Z,71.60
2019-04-27T06:33:44.515Z,68.43
2019-04-27T06:34:49.180Z,66.53
2019-04-27T06:35:53.842Z,73.20
2019-04-27T06:36:59.938Z,68.60
2019-04-27T06:38:04.816Z,69.43
2019-04-27T06:39:09.946Z,67.67
2019-04-27T06:40:14.890Z,65.80
2019-04-27T06:41:19.509Z,65.90
2019-04-27T06:42:24.223Z,60.87
2019-04-27T06:43:29.408Z,63.30
2019-04-27T06:44:34.382Z,57.53
2019-04-27T06:45:39.399Z,59.53
2019-04-27T06:46:44.243Z,66.77
2019-04-27T06:47:51.054Z,68.73
2019-04-27T06:48:59.255Z,62.30
2019-04-27T06:50:04.726Z,54.37
2019-04-27T06:51:09.675Z,53.83
2019-04-27T06:52:14.457Z,51.30
2019-04-27T06:53:19.258Z,54.17
2019-04-27T06:54:23.859Z,53.53
2019-04-27T06:55:29.140Z,49.63
2019-04-27T06:56:33.975Z,47.90
2019-04-27T06:57:39.096Z,49.13
2019-04-27T06:58:44.782Z,46.93
2019-04-27T06:59:54.098Z,51.57
2019-04-27T07:00:59.522Z,48.13
2019-04-27T07:02:04.257Z,46.03
2019-04-27T07:03:10.683Z,46.63
2019-04-27T07:04:16.026Z,44.10
2019-04-27T07:05:20.599Z,46.93
2019-04-27T07:06:25.368Z,41.07
2019-04-27T07:07:29.896Z,36.80
2019-04-27T07:08:34.497Z,38.07
2019-04-27T07:09:39.326Z,31.83
2019-04-27T07:10:43.940Z,29.90
2019-04-27T07:11:49.351Z,27.23
2019-04-27T07:12:54.367Z,29.80
2019-04-27T07:14:00.500Z,31.27
2019-04-27T07:15:05.485Z,28.47
2019-04-27T07:16:19.458Z,28.13
2019-04-27T07:17:24.431Z,29.10
2019-04-27T07:18:28.833Z,29.17
2019-04-27T07:19:33.425Z,28.73
2019-04-27T07:20:38.874Z,23.83
2019-04-27T07:21:43.725Z,28.47
2019-04-27T07:22:49.677Z,24.77
2019-04-27T07:23:59.240Z,29.93
2019-04-27T07:25:04.353Z,24.20
2019-04-27T07:26:10.025Z,24.57
2019-04-27T07:27:14.652Z,26.23
2019-04-27T07:28:22.045Z,23.93
2019-04-27T07:29:26.703Z,22.63
2019-04-27T07:30:31.502Z,23.07
2019-04-27T07:31:43.285Z,25.33
2019-04-27T07:32:48.870Z,24.63
2019-04-27T07:33:56.712Z,25.33
2019-04-27T07:35:01.392Z,22.20
2019-04-27T07:36:05.912Z,25.70
2019-04-27T07:37:11.104Z,27.17
2019-04-27T07:38:15.845Z,23.17
2019-04-27T07:39:20.336Z,27.57
2019-04-27T07:40:28.902Z,23.90
2019-04-27T07:41:35.564Z,24.77
2019-04-27T07:42:42.008Z,25.83
2019-04-27T07:43:56.561Z,25.07
2019-04-27T07:45:09.366Z,24.30
2019-04-27T07:46:14.164Z,23.23
2019-04-27T07:47:23.354Z,23.07
2019-04-27T07:48:28.572Z,25.53
2019-04-27T07:49:33.242Z,22.43
2019-04-27T07:50:39.014Z,22.47
2019-04-27T07:51:43.628Z,20.03
2019-04-27T07:52:48.679Z,20.93
2019-04-27T07:53:53.305Z,23.40
2019-04-27T07:54:58.779Z,22.27
2019-04-27T07:56:03.852Z,22.33
2019-04-27T07:57:09.881Z,21.80
2019-04-27T07:58:14.595Z,24.13
2019-04-27T07:59:18.981Z,31.63
2019-04-27T08:00:23.573Z,22.53
2019-04-27T08:01:29.403Z,23.63
2019-04-27T08:02:34.064Z,21.37
2019-04-27T08:03:39.037Z,21.87
2019-04-27T08:04:43.632Z,21.07
2019-04-27T08:05:49.111Z,21.93
2019-04-27T08:06:53.870Z,23.20
2019-04-27T08:07:59.988Z,19.33
2019-04-27T08:09:05.886Z,20.13
2019-04-27T08:10:10.877Z,20.93
2019-04-27T08:11:15.323Z,19.23
2019-04-27T08:12:20.898Z,21.87
2019-04-27T08:13:25.738Z,20.83
2019-04-27T08:14:30.290Z,19.07
2019-04-27T08:15:35.016Z,19.23
2019-04-27T08:16:39.622Z,20.57
2019-04-27T08:17:44.171Z,21.63
2019-04-27T08:18:49.630Z,23.27
2019-04-27T08:19:57.084Z,20.13
2019-04-27T08:21:01.562Z,19.17
2019-04-27T08:22:06.103Z,22.77
2019-04-27T08:23:10.553Z,20.50
2019-04-27T08:24:15.450Z,18.97
2019-04-27T08:25:19.955Z,22.87
2019-04-27T08:26:30.745Z,20.07
2019-04-27T08:27:41.183Z,20.73
2019-04-27T08:28:59.384Z,18.57
2019-04-27T08:30:22.303Z,19.03
2019-04-27T08:31:40.299Z,17.60
2019-04-27T08:32:46.428Z,15.03
2019-04-27T08:33:50.808Z,14.63
2019-04-27T08:34:55.199Z,13.53
2019-04-27T08:35:59.817Z,12.63
2019-04-27T08:37:05.085Z,16.27
2019-04-27T08:38:09.743Z,14.40
2019-04-27T08:39:14.312Z,15.43
2019-04-27T08:40:19.391Z,15.17
2019-04-27T08:41:24.021Z,12.77
2019-04-27T08:42:29.397Z,12.77
2019-04-27T08:43:36.629Z,13.50
2019-04-27T08:44:41.030Z,14.37
2019-04-27T08:45:45.486Z,12.40
2019-04-27T08:46:49.857Z,11.87
2019-04-27T08:47:54.358Z,13.70
2019-04-27T08:48:58.941Z,11.70
2019-04-27T08:50:03.692Z,10.67
2019-04-27T08:51:09.581Z,11.93
2019-04-27T08:52:14.368Z,10.67
2019-04-27T08:53:18.916Z,10.40
2019-04-27T08:54:23.618Z,10.93
2019-04-27T08:55:29.454Z,8.67
2019-04-27T08:56:34.039Z,11.27
2019-04-27T08:57:38.912Z,9.17
2019-04-27T08:58:43.625Z,8.57
2019-04-27T08:59:48.991Z,9.73
2019-04-27T09:00:54.356Z,10.47
2019-04-27T09:01:59.212Z,9.50
2019-04-27T09:03:04.370Z,8.13
2019-04-27T09:04:09.227Z,11.07
2019-04-27T09:05:16.616Z,9.70
2019-04-27T09:06:23.442Z,8.43
2019-04-27T09:07:39.909Z,7.10
2019-04-27T09:08:53.391Z,8.43
2019-04-27T09:10:03.112Z,8.23
2019-04-27T09:11:29.375Z,8.13
2019-04-27T09:12:51.842Z,7.50
2019-04-27T09:14:14.907Z,7.47
2019-04-27T09:15:41.391Z,7.70
2019-04-27T09:17:03.745Z,10.33
2019-04-27T09:18:09.027Z,8.73
2019-04-27T09:19:24.539Z,8.87
2019-04-27T09:20:38.989Z,6.77
2019-04-27T09:22:12.454Z,8.07
2019-04-27T09:23:09.711Z,6.27
2019-04-27T09:24:14.012Z,10.77
2019-04-27T09:25:19.300Z,6.80
2019-04-27T09:26:24.066Z,5.93
2019-04-27T09:27:28.978Z,7.47
2019-04-27T09:28:33.486Z,11.13
2019-04-27T09:29:39.522Z,6.63
2019-04-27T09:30:44.117Z,6.83
2019-04-27T09:31:49.038Z,6.50
2019-04-27T09:32:53.528Z,6.70
2019-04-27T09:33:58.708Z,6.53
2019-04-27T09:35:03.302Z,6.90
2019-04-27T09:36:07.703Z,4.97
2019-04-27T09:37:12.206Z,5.40
2019-04-27T09:38:16.757Z,5.27
2019-04-27T09:39:22.883Z,5.33
2019-04-27T09:40:27.299Z,4.90
2019-04-27T09:41:31.766Z,6.20
2019-04-27T09:42:38.300Z,9.53
2019-04-27T09:43:42.507Z,4.80
2019-04-27T09:44:47.610Z,4.67
2019-04-27T09:45:52.205Z,4.67
2019-04-27T09:46:56.630Z,3.63
2019-04-27T09:48:00.981Z,3.93
2019-04-27T09:49:05.354Z,4.20
2019-04-27T09:50:10.455Z,4.20
2019-04-27T09:51:16.267Z,4.70
2019-04-27T09:52:26.225Z,4.17
2019-04-27T09:53:27.120Z,5.77
2019-04-27T09:54:31.657Z,5.33
2019-04-27T09:55:36.829Z,4.43
2019-04-27T09:56:41.612Z,5.87
2019-04-27T09:57:46.570Z,4.37
2019-04-27T09:58:51.208Z,3.97
2019-04-27T09:59:56.470Z,3.20
2019-04-27T10:01:00.950Z,4.30
2019-04-27T10:02:05.570Z,4.87
2019-04-27T10:03:10.079Z,3.47
2019-04-27T10:04:15.701Z,2.77
2019-04-27T10:05:20.680Z,3.10
2019-04-27T10:06:28.014Z,5.13
2019-04-27T10:07:31.290Z,2.43
2019-04-27T10:08:36.701Z,3.83
2019-04-27T10:09:41.272Z,5.57
2019-04-27T10:10:47.891Z,3.47
2019-04-27T10:11:52.310Z,3.70
2019-04-27T10:12:59.828Z,4.73
2019-04-27T10:14:05.899Z,3.63
2019-04-27T10:15:10.538Z,3.77
2019-04-27T10:16:15.067Z,3.20
2019-04-27T10:17:19.760Z,3.03
2019-04-27T10:18:24.220Z,4.07
2019-04-27T10:19:32.979Z,3.90
2019-04-27T10:20:38.434Z,3.23
2019-04-27T10:21:40.862Z,2.90
2019-04-27T10:22:46.318Z,2.73
2019-04-27T10:23:50.877Z,5.27
2019-04-27T10:24:55.337Z,6.37
2019-04-27T10:26:00.231Z,3.07
2019-04-27T10:27:05.560Z,8.93
2019-04-27T10:28:11.500Z,3.27
2019-04-27T10:29:16.237Z,4.23
2019-04-27T10:30:20.855Z,3.47
2019-04-27T10:31:25.374Z,3.30
2019-04-27T10:32:29.783Z,4.20
2019-04-27T10:33:35.896Z,3.50
2019-04-27T10:34:41.740Z,3.50
2019-04-27T10:35:47.314Z,4.57
2019-04-27T10:36:52.167Z,2.87
2019-04-27T10:37:56.819Z,2.70
2019-04-27T10:39:01.261Z,2.23
2019-04-27T10:40:06.325Z,1.67
2019-04-27T10:41:10.919Z,3.87
2019-04-27T10:42:15.694Z,2.63
2019-04-27T10:43:20.211Z,4.27
2019-04-27T10:44:26.693Z,2.43
2019-04-27T10:45:31.430Z,1.40
2019-04-27T10:46:36.008Z,3.17
2019-04-27T10:47:40.401Z,3.40
2019-04-27T10:48:46.360Z,5.20
2019-04-27T10:49:50.824Z,2.80
2019-04-27T10:50:55.311Z,2.27
2019-04-27T10:51:59.725Z,2.57
2019-04-27T10:53:04.163Z,2.27
2019-04-27T10:54:08.638Z,3.97
2019-04-27T10:55:13.295Z,3.63
2019-04-27T10:56:17.803Z,3.37
2019-04-27T10:57:22.244Z,3.63
2019-04-27T10:58:27.314Z,3.33
2019-04-27T10:59:33.047Z,2.97
2019-04-27T11:00:42.549Z,2.67
2019-04-27T11:01:47.335Z,1.97
2019-04-27T11:02:51.816Z,2.27
2019-04-27T11:04:23.669Z,3.03
2019-04-27T11:05:33.580Z,2.10
2019-04-27T11:06:43.646Z,2.93
2019-04-27T11:07:48.110Z,4.93
2019-04-27T11:08:53.570Z,6.63
2019-04-27T11:09:58.073Z,4.07
2019-04-27T11:11:02.488Z,3.40
2019-04-27T11:12:07.468Z,4.30
2019-04-27T11:13:11.920Z,1.70
2019-04-27T11:14:16.431Z,3.60
2019-04-27T11:15:21.062Z,1.67
2019-04-27T11:16:25.524Z,2.20
2019-04-27T11:17:30.124Z,3.97
2019-04-27T11:18:36.094Z,2.43
2019-04-27T11:19:40.609Z,2.50
2019-04-27T11:20:46.319Z,5.00
2019-04-27T11:21:51.076Z,2.07
2019-04-27T11:23:06.581Z,3.37
2019-04-27T11:24:01.924Z,3.37
2019-04-27T11:25:07.145Z,2.63
2019-04-27T11:26:11.549Z,2.03
2019-04-27T11:27:15.947Z,4.43
2019-04-27T11:28:20.365Z,3.17
2019-04-27T11:29:25.951Z,3.67
2019-04-27T11:30:31.095Z,4.90
2019-04-27T11:31:36.391Z,2.70
2019-04-27T11:32:41.032Z,2.80
2019-04-27T11:33:46.475Z,3.10
2019-04-27T11:35:08.900Z,2.03
2019-04-27T11:36:33.346Z,2.12
2019-04-27T11:37:38.539Z,3.67
2019-04-27T11:38:42.962Z,3.12
2019-04-27T11:39:47.308Z,2.70
2019-04-27T11:40:51.695Z,2.98
2019-04-27T11:41:56.124Z,3.80
2019-04-27T11:43:00.948Z,2.83
2019-04-27T11:44:05.311Z,2.40
2019-04-27T11:45:10.009Z,1.75
2019-04-27T11:46:16.272Z,2.12
2019-04-27T11:47:20.798Z,1.87
2019-04-27T11:48:26.298Z,4.28
2019-04-27T11:49:30.999Z,2.08
2019-04-27T11:50:35.858Z,2.60
2019-04-27T11:51:40.323Z,3.25
2019-04-27T11:52:45.632Z,3.00
2019-04-27T11:53:50.280Z,3.00
2019-04-27T11:54:55.748Z,2.50
2019-04-27T11:56:00.342Z,1.95
2019-04-27T11:57:04.805Z,1.87
2019-04-27T11:58:09.149Z,1.75
2019-04-27T11:59:13.568Z,3.40
2019-04-27T12:00:21.158Z,3.20
2019-04-27T12:01:27.022Z,1.92
2019-04-27T12:02:31.573Z,2.02
2019-04-27T12:03:36.093Z,2.77
2019-04-27T12:04:40.529Z,2.83
2019-04-27T12:05:46.481Z,3.20
2019-04-27T12:06:51.103Z,2.80
2019-04-27T12:07:56.124Z,3.47
2019-04-27T12:09:00.704Z,2.25
2019-04-27T12:10:05.932Z,1.47
2019-04-27T12:11:10.360Z,2.75
2019-04-27T12:12:18.178Z,5.75
2019-04-27T12:13:20.917Z,2.17
2019-04-27T12:14:25.995Z,4.22
2019-04-27T12:15:30.426Z,2.60
2019-04-27T12:16:36.045Z,3.12
2019-04-27T12:17:40.781Z,2.02
2019-04-27T12:18:48.976Z,2.12
2019-04-27T12:19:51.330Z,1.72
2019-04-27T12:20:55.854Z,3.85
2019-04-27T12:22:00.513Z,2.15
2019-04-27T12:23:06.512Z,1.72
2019-04-27T12:24:11.217Z,2.35
2019-04-27T12:25:16.736Z,1.17
2019-04-27T12:26:52.216Z,2.12
2019-04-27T12:28:15.653Z,1.75
2019-04-27T12:29:22.554Z,1.85
2019-04-27T12:30:33.922Z,1.62
2019-04-27T12:31:42.931Z,2.72
2019-04-27T12:32:46.739Z,1.30
2019-04-27T12:33:51.174Z,1.30
2019-04-27T12:34:56.563Z,2.05
2019-04-27T12:36:01.225Z,0.70
2019-04-27T12:37:07.243Z,2.00
2019-04-27T12:38:11.862Z,1.72
2019-04-27T12:39:16.361Z,1.27
2019-04-27T12:40:20.952Z,1.40
2019-04-27T12:41:25.292Z,1.42
2019-04-27T12:42:29.725Z,2.27
2019-04-27T12:43:35.587Z,1.52
2019-04-27T12:44:42.230Z,4.92
2019-04-27T12:45:46.563Z,1.60
2019-04-27T12:46:52.510Z,1.92
2019-04-27T12:47:57.025Z,1.70
2019-04-27T12:49:01.530Z,1.00
2019-04-27T12:50:07.478Z,2.62
2019-04-27T12:51:12.117Z,1.22
2019-04-27T12:52:17.168Z,2.42
2019-04-27T12:53:30.376Z,1.55
2019-04-27T12:54:40.998Z,1.82
2019-04-27T12:56:13.575Z,1.30
2019-04-27T12:57:37.145Z,1.95
2019-04-27T12:58:47.578Z,1.37
2019-04-27T13:00:00.549Z,2.80
2019-04-27T13:01:07.300Z,1.17
2019-04-27T13:02:11.719Z,1.57
2019-04-27T13:03:16.158Z,2.55
2019-04-27T13:04:20.576Z,2.27
2019-04-27T13:05:25.838Z,2.70
2019-04-27T13:06:30.343Z,1.52
2019-04-27T13:07:34.691Z,1.45
2019-04-27T13:08:39.109Z,0.72
2019-04-27T13:09:43.482Z,1.37
2019-04-27T13:10:47.905Z,1.98
2019-04-27T13:11:52.419Z,3.67
2019-04-27T13:12:56.881Z,4.47
2019-04-27T13:14:03.196Z,1.67
2019-04-27T13:15:09.079Z,1.42
2019-04-27T13:16:13.596Z,1.20
2019-04-27T13:17:18.066Z,1.20
2019-04-27T13:18:23.397Z,1.77
2019-04-27T13:19:27.801Z,1.30
2019-04-27T13:20:32.370Z,0.68
2019-04-27T13:21:36.700Z,3.08
2019-04-27T13:22:41.210Z,6.95
2019-04-27T13:23:45.853Z,9.93
2019-04-27T13:24:53.432Z,7.80
2019-04-27T13:25:57.841Z,5.03
2019-04-27T13:27:02.509Z,8.68
2019-04-27T13:28:06.926Z,9.73
2019-04-27T13:29:11.327Z,6.57
2019-04-27T13:30:16.486Z,9.93
2019-04-27T13:31:21.174Z,8.23
2019-04-27T13:32:26.566Z,6.60
2019-04-27T13:33:31.183Z,6.40
2019-04-27T13:34:36.347Z,4.70
2019-04-27T13:35:41.808Z,4.33
2019-04-27T13:36:46.150Z,5.97
2019-04-27T13:37:52.838Z,4.50
2019-04-27T13:38:56.817Z,7.00
2019-04-27T13:40:07.102Z,5.73
2019-04-27T13:41:11.262Z,5.73
2019-04-27T13:42:15.711Z,3.67
2019-04-27T13:43:26.112Z,5.10
2019-04-27T13:44:30.471Z,4.17
2019-04-27T13:45:53.180Z,4.63
2019-04-27T13:47:14.299Z,4.33
2019-04-27T13:48:41.041Z,4.97
2019-04-27T13:49:54.227Z,3.67
2019-04-27T13:50:59.833Z,3.10
2019-04-27T13:52:12.572Z,3.03
2019-04-27T13:53:17.032Z,2.53
2019-04-27T13:54:26.084Z,3.90
2019-04-27T13:55:27.720Z,3.83
2019-04-27T13:56:32.144Z,4.60
2019-04-27T13:57:49.505Z,3.80
2019-04-27T13:58:42.723Z,2.97
2019-04-27T13:59:47.175Z,3.80
2019-04-27T14:00:51.552Z,3.37
2019-04-27T14:01:56.005Z,3.93
2019-04-27T14:03:00.399Z,2.93
2019-04-27T14:04:06.859Z,4.93
2019-04-27T14:05:11.838Z,3.40
2019-04-27T14:06:16.384Z,2.53
2019-04-27T14:07:20.728Z,2.87
2019-04-27T14:08:25.114Z,3.17
2019-04-27T14:09:30.681Z,4.00
2019-04-27T14:10:35.435Z,3.30
2019-04-27T14:11:39.796Z,5.87
2019-04-27T14:12:44.183Z,3.67
2019-04-27T14:13:49.721Z,4.40
2019-04-27T14:14:54.195Z,4.20
2019-04-27T14:15:58.592Z,4.53
2019-04-27T14:17:02.971Z,5.50
2019-04-27T14:18:08.344Z,4.60
2019-04-27T14:19:12.947Z,8.27
2019-04-27T14:20:18.233Z,7.60
2019-04-27T14:21:23.054Z,4.33
2019-04-27T14:22:28.190Z,4.67
2019-04-27T14:23:33.576Z,6.53
2019-04-27T14:24:41.487Z,6.00
2019-04-27T14:25:45.887Z,4.90
2019-04-27T14:26:50.319Z,4.97